TimeCST,TemperatureF,Dew PointF,Humidity,Sea Level PressureIn,VisibilityMPH,Wind Direction,Wind SpeedMPH,Gust SpeedMPH,PrecipitationIn,Events,Conditions,WindDirDegrees,DateUTC
12:53 AM,46.9,21.9,37,29.90,10.0,West,11.5,-,N/A,,Clear,260,2012-12-15 06:53:00
1:53 AM,46.9,21.9,37,29.88,10.0,West,11.5,-,N/A,,Clear,270,2012-12-15 07:53:00
2:53 AM,46.0,23.0,40,29.88,10.0,WSW,5.8,-,N/A,,Clear,240,2012-12-15 08:53:00
3:53 AM,45.0,23.0,42,29.88,10.0,SW,10.4,-,N/A,,Clear,230,2012-12-15 09:53:00
4:53 AM,43.0,24.1,47,29.89,10.0,SW,9.2,-,N/A,,Clear,220,2012-12-15 10:53:00
5:53 AM,42.1,24.1,49,29.88,10.0,SSW,11.5,-,N/A,,Clear,210,2012-12-15 11:53:00
6:53 AM,43.0,25.0,49,29.90,10.0,SW,12.7,-,N/A,,Clear,220,2012-12-15 12:53:00
7:53 AM,44.1,26.1,49,29.93,10.0,SW,10.4,-,N/A,,Clear,230,2012-12-15 13:53:00
8:53 AM,46.0,26.1,46,29.94,10.0,WSW,8.1,-,N/A,,Clear,240,2012-12-15 14:53:00
9:53 AM,48.9,27.0,43,29.95,10.0,WSW,12.7,-,N/A,,Clear,250,2012-12-15 15:53:00
10:53 AM,53.1,27.0,37,29.94,10.0,West,12.7,-,N/A,,Clear,260,2012-12-15 16:53:00
11:53 AM,55.9,28.9,36,29.94,10.0,West,13.8,-,N/A,,Clear,270,2012-12-15 17:53:00
12:53 PM,57.9,30.0,35,29.89,10.0,West,15.0,-,N/A,,Clear,270,2012-12-15 18:53:00
1:53 PM,59.0,30.9,35,29.86,10.0,WNW,17.3,-,N/A,,Clear,290,2012-12-15 19:53:00
2:53 PM,61.0,30.9,32,29.83,10.0,West,13.8,23.0,N/A,,Clear,280,2012-12-15 20:53:00
3:53 PM,61.0,30.9,32,29.83,10.0,West,12.7,-,N/A,,Clear,280,2012-12-15 21:53:00
4:53 PM,61.0,30.0,31,29.83,10.0,West,15.0,-,N/A,,Clear,270,2012-12-15 22:53:00
5:53 PM,57.9,30.9,36,29.85,10.0,NW,11.5,-,N/A,,Clear,310,2012-12-15 23:53:00
6:53 PM,55.9,32.0,40,29.85,10.0,WNW,10.4,-,N/A,,Clear,290,2012-12-16 00:53:00
7:53 PM,55.9,32.0,40,29.86,10.0,WNW,12.7,-,N/A,,Clear,290,2012-12-16 01:53:00
8:53 PM,53.1,30.9,43,29.85,10.0,WNW,6.9,-,N/A,,Clear,290,2012-12-16 02:53:00
9:53 PM,52.0,32.0,47,29.84,10.0,WNW,5.8,-,N/A,,Clear,290,2012-12-16 03:53:00
10:53 PM,48.9,30.9,50,29.86,10.0,Calm,Calm,-,N/A,,Clear,0,2012-12-16 04:53:00
11:53 PM,48.0,30.9,52,29.83,10.0,Calm,Calm,-,N/A,,Clear,0,2012-12-16 05:53:00